createdAt,value
2017-12-19T00:00:34.165Z,4.36
2017-12-19T00:03:02.222Z,4.36
2017-12-19T00:05:30.268Z,4.38
2017-12-19T00:07:58.302Z,4.29
2017-12-19T00:10:26.368Z,4.23
2017-12-19T00:12:54.412Z,4.13
2017-12-19T00:15:22.764Z,4.20
2017-12-19T00:17:51.078Z,4.22
2017-12-19T00:20:19.428Z,4.19
2017-12-19T00:22:47.754Z,4.23
2017-12-19T00:25:16.106Z,4.06
2017-12-19T00:27:44.430Z,4.15
2017-12-19T00:30:12.971Z,4.07
2017-12-19T00:32:41.293Z,4.09
2017-12-19T00:35:09.764Z,4.03
2017-12-19T00:37:38.078Z,3.94
2017-12-19T00:40:06.422Z,3.95
2017-12-19T00:42:34.746Z,4.06
2017-12-19T00:45:03.089Z,3.99
2017-12-19T00:47:31.417Z,3.98
2017-12-19T00:49:59.767Z,3.98
2017-12-19T00:52:28.090Z,3.93
2017-12-19T00:54:56.439Z,3.87
2017-12-19T00:57:24.762Z,3.96
2017-12-19T00:59:53.106Z,3.98
2017-12-19T01:02:21.434Z,3.92
2017-12-19T01:04:49.780Z,4.01
2017-12-19T01:07:18.106Z,3.94
2017-12-19T01:09:46.454Z,3.99
2017-12-19T01:12:14.778Z,4.02
2017-12-19T01:14:43.122Z,3.94
2017-12-19T01:17:11.451Z,3.99
2017-12-19T01:19:39.811Z,3.92
2017-12-19T01:22:08.136Z,3.98
2017-12-19T01:24:36.477Z,3.95
2017-12-19T01:27:04.801Z,3.96
2017-12-19T01:29:33.150Z,3.96
2017-12-19T01:32:01.474Z,4.05
2017-12-19T01:34:29.818Z,3.96
2017-12-19T01:36:58.142Z,4.04
2017-12-19T01:39:26.486Z,4.04
2017-12-19T01:41:54.811Z,3.98
2017-12-19T01:44:23.159Z,3.99
2017-12-19T01:46:51.482Z,3.94
2017-12-19T01:49:19.835Z,4.02
2017-12-19T01:51:48.157Z,3.99
2017-12-19T01:54:16.502Z,4.06
2017-12-19T01:56:44.825Z,4.16
2017-12-19T01:59:13.177Z,4.15
2017-12-19T02:01:41.497Z,4.05
2017-12-19T02:04:09.841Z,4.05
2017-12-19T02:06:38.161Z,3.94
2017-12-19T02:09:06.507Z,3.83
2017-12-19T02:11:34.830Z,3.88
2017-12-19T02:14:03.178Z,3.87
2017-12-19T02:16:32.098Z,3.96
2017-12-19T02:19:00.441Z,3.90
2017-12-19T02:21:28.767Z,3.89
2017-12-19T02:23:57.097Z,4.00
2017-12-19T02:26:25.446Z,3.99
2017-12-19T02:28:53.774Z,3.99
2017-12-19T02:31:22.129Z,4.07
2017-12-19T02:33:50.450Z,3.98
2017-12-19T02:36:18.794Z,3.88
2017-12-19T02:38:47.118Z,3.87
2017-12-19T02:41:15.467Z,3.74
2017-12-19T02:43:43.798Z,3.82
2017-12-19T02:46:12.141Z,3.91
2017-12-19T02:48:40.467Z,3.87
2017-12-19T02:51:08.814Z,3.99
2017-12-19T02:53:37.143Z,3.90
2017-12-19T02:56:05.490Z,3.76
2017-12-19T02:58:33.814Z,3.83
2017-12-19T03:01:02.158Z,3.87
2017-12-19T03:03:30.490Z,3.79
2017-12-19T03:05:58.842Z,3.89
2017-12-19T03:08:27.172Z,3.98
2017-12-19T03:10:55.519Z,3.93
2017-12-19T03:13:23.845Z,3.97
2017-12-19T03:15:52.194Z,3.91
2017-12-19T03:18:20.518Z,3.91
2017-12-19T03:20:48.861Z,3.93
2017-12-19T03:23:17.186Z,3.91
2017-12-19T03:25:45.534Z,3.89
2017-12-19T03:28:13.857Z,3.91
2017-12-19T03:30:42.225Z,3.86
2017-12-19T03:33:10.534Z,3.90
2017-12-19T03:35:38.910Z,3.89
2017-12-19T03:38:07.238Z,3.90
2017-12-19T03:40:35.583Z,3.92
2017-12-19T03:43:03.915Z,3.79
2017-12-19T03:45:32.259Z,3.77
2017-12-19T03:48:00.586Z,3.72
2017-12-19T03:50:28.940Z,3.80
2017-12-19T03:52:57.265Z,3.61
2017-12-19T03:55:25.606Z,3.65
2017-12-19T03:57:53.931Z,3.74
2017-12-19T04:00:22.278Z,3.86
2017-12-19T04:02:50.601Z,3.94
2017-12-19T04:05:18.960Z,3.91
2017-12-19T04:07:47.284Z,3.96
2017-12-19T04:10:15.642Z,3.82
2017-12-19T04:12:43.977Z,3.68
2017-12-19T04:15:12.324Z,3.85
2017-12-19T04:17:40.647Z,4.00
2017-12-19T04:20:08.994Z,3.95
2017-12-19T04:22:37.318Z,3.97
2017-12-19T04:25:05.662Z,3.92
2017-12-19T04:27:33.986Z,3.89
2017-12-19T04:30:02.339Z,3.91
2017-12-19T04:32:30.658Z,3.97
2017-12-19T04:34:59.010Z,4.08
2017-12-19T04:37:27.330Z,4.08
2017-12-19T04:39:55.674Z,4.05
2017-12-19T04:42:23.998Z,3.98
2017-12-19T04:44:52.362Z,4.13
2017-12-19T04:47:20.699Z,4.19
2017-12-19T04:49:49.026Z,4.13
2017-12-19T04:52:17.373Z,4.12
2017-12-19T04:54:45.698Z,4.12
2017-12-19T04:57:14.042Z,4.04
2017-12-19T04:59:42.374Z,4.05
2017-12-19T05:02:10.717Z,4.00
2017-12-19T05:04:39.046Z,3.97
2017-12-19T05:07:07.394Z,4.04
2017-12-19T05:09:35.726Z,3.92
2017-12-19T05:12:04.070Z,3.93
2017-12-19T05:14:32.402Z,3.90
2017-12-19T05:17:00.742Z,3.94
2017-12-19T05:19:29.075Z,4.04
2017-12-19T05:21:57.418Z,4.11
2017-12-19T05:24:25.748Z,4.21
2017-12-19T05:26:54.091Z,4.21
2017-12-19T05:29:22.422Z,4.22
2017-12-19T05:31:50.778Z,4.23
2017-12-19T05:34:19.109Z,4.32
2017-12-19T05:36:47.455Z,4.35
2017-12-19T05:39:15.787Z,4.26
2017-12-19T05:41:44.139Z,4.32
2017-12-19T05:44:12.466Z,4.36
2017-12-19T05:46:40.814Z,4.21
2017-12-19T05:49:09.143Z,4.25
2017-12-19T05:51:37.500Z,4.24
2017-12-19T05:54:05.874Z,4.31
2017-12-19T05:56:34.270Z,4.36
2017-12-19T05:59:02.796Z,4.35
2017-12-19T06:01:31.144Z,4.20
2017-12-19T06:03:59.479Z,4.35
2017-12-19T06:06:27.826Z,4.43
2017-12-19T06:08:56.158Z,4.35
2017-12-19T06:11:24.502Z,4.42
2017-12-19T06:13:52.838Z,4.42
2017-12-19T06:16:21.191Z,4.56
2017-12-19T06:18:49.522Z,4.55
2017-12-19T06:21:17.870Z,4.61
2017-12-19T06:23:46.202Z,4.40
2017-12-19T06:26:14.555Z,4.47
2017-12-19T06:28:42.878Z,4.42
2017-12-19T06:31:11.225Z,4.44
2017-12-19T06:33:39.559Z,4.49
2017-12-19T06:36:07.906Z,4.45
2017-12-19T06:38:36.247Z,4.33
2017-12-19T06:41:04.590Z,4.36
2017-12-19T06:43:39.108Z,4.39
2017-12-19T06:46:07.939Z,4.36
2017-12-19T06:48:36.295Z,4.37
2017-12-19T06:51:04.627Z,4.45
2017-12-19T06:53:32.959Z,4.53
2017-12-19T06:56:01.325Z,4.57
2017-12-19T06:58:29.666Z,4.59
2017-12-19T07:00:58.012Z,4.56
2017-12-19T07:03:26.342Z,4.61
2017-12-19T07:05:54.700Z,4.66
2017-12-19T07:08:23.163Z,4.68
2017-12-19T07:10:51.511Z,4.61
2017-12-19T07:13:19.947Z,4.67
2017-12-19T07:15:48.280Z,4.64
2017-12-19T07:18:17.270Z,4.67
2017-12-19T07:20:46.308Z,4.75
2017-12-19T07:23:15.087Z,4.66
2017-12-19T07:25:43.406Z,4.52
2017-12-19T07:28:11.765Z,4.54
2017-12-19T07:30:40.094Z,4.64
2017-12-19T07:33:08.443Z,4.65
2017-12-19T07:35:36.779Z,4.59
2017-12-19T07:38:05.135Z,4.45
2017-12-19T07:40:33.463Z,4.59
2017-12-19T07:43:01.858Z,4.56
2017-12-19T07:45:30.139Z,4.58
2017-12-19T07:47:58.490Z,4.53
2017-12-19T07:50:26.850Z,4.61
2017-12-19T07:52:55.254Z,4.59
2017-12-19T07:55:23.588Z,4.66
2017-12-19T07:57:51.975Z,4.70
2017-12-19T08:00:20.362Z,4.65
2017-12-19T08:02:48.848Z,4.66
2017-12-19T08:05:17.316Z,4.58
2017-12-19T08:07:45.767Z,4.70
2017-12-19T08:10:14.090Z,4.73
2017-12-19T08:12:42.439Z,4.77
2017-12-19T08:15:11.113Z,4.73
2017-12-19T08:17:39.472Z,4.77
2017-12-19T08:20:07.819Z,4.81
2017-12-19T08:22:36.179Z,4.84
2017-12-19T08:25:04.525Z,4.76
2017-12-19T08:27:32.888Z,4.76
2017-12-19T08:30:01.223Z,4.85
2017-12-19T08:32:29.623Z,4.63
2017-12-19T08:34:57.919Z,4.71
2017-12-19T08:37:26.276Z,4.77
2017-12-19T08:39:54.607Z,4.92
2017-12-19T08:42:22.962Z,4.78
2017-12-19T08:44:51.286Z,4.90
2017-12-19T08:47:19.644Z,4.97
2017-12-19T08:49:47.979Z,4.87
2017-12-19T08:52:16.338Z,4.95
2017-12-19T08:54:44.661Z,4.88
2017-12-19T08:57:13.263Z,4.87
2017-12-19T08:59:41.588Z,4.97
2017-12-19T09:02:09.954Z,4.88
2017-12-19T09:04:38.286Z,4.89
2017-12-19T09:07:06.645Z,4.91
2017-12-19T09:09:34.980Z,4.84
2017-12-19T09:12:03.322Z,4.97
2017-12-19T09:14:31.654Z,5.00
2017-12-19T09:17:00.583Z,5.01
2017-12-19T09:19:28.911Z,4.95
2017-12-19T09:21:57.266Z,5.01
2017-12-19T09:24:25.594Z,4.99
2017-12-19T09:26:53.943Z,5.00
2017-12-19T09:29:22.268Z,5.06
2017-12-19T09:31:50.599Z,4.98
2017-12-19T09:34:18.950Z,4.93
2017-12-19T09:36:47.470Z,5.02
2017-12-19T09:39:15.822Z,4.97
2017-12-19T09:41:44.154Z,5.11
2017-12-19T09:44:12.499Z,5.16
2017-12-19T09:46:40.838Z,5.16
2017-12-19T09:49:09.202Z,5.13
2017-12-19T09:51:37.531Z,5.21
2017-12-19T09:54:05.883Z,5.16
2017-12-19T09:56:34.914Z,5.18
2017-12-19T09:59:03.266Z,5.28
2017-12-19T10:01:31.753Z,6.28
2017-12-19T10:04:00.123Z,6.06
2017-12-19T10:06:28.457Z,5.86
2017-12-19T10:08:56.818Z,5.70
2017-12-19T10:11:25.147Z,5.67
2017-12-19T10:13:53.498Z,5.43
2017-12-19T10:16:21.835Z,5.39
2017-12-19T10:18:50.182Z,5.44
2017-12-19T10:21:18.507Z,5.35
2017-12-19T10:23:46.862Z,5.41
2017-12-19T10:26:15.186Z,5.68
2017-12-19T10:28:43.534Z,5.51
2017-12-19T10:31:11.873Z,5.61
2017-12-19T10:33:44.080Z,5.49
2017-12-19T10:36:12.414Z,5.62
2017-12-19T10:38:41.128Z,5.53
2017-12-19T10:41:09.462Z,5.42
2017-12-19T10:43:37.831Z,5.45
2017-12-19T10:46:06.166Z,5.37
2017-12-19T10:48:34.526Z,5.45
2017-12-19T10:51:02.851Z,5.44
2017-12-19T10:53:31.202Z,5.51
2017-12-19T10:55:59.536Z,5.48
2017-12-19T10:58:27.891Z,5.46
2017-12-19T11:00:56.216Z,5.57
2017-12-19T11:03:24.566Z,5.47
2017-12-19T11:05:52.896Z,5.61
2017-12-19T11:08:21.242Z,5.53
2017-12-19T11:10:49.574Z,5.82
2017-12-19T11:13:17.935Z,6.41
2017-12-19T11:15:46.563Z,6.03
2017-12-19T11:18:14.905Z,5.67
2017-12-19T11:20:43.238Z,5.64
2017-12-19T11:23:11.599Z,5.63
2017-12-19T11:25:39.930Z,5.65
2017-12-19T11:28:08.274Z,5.70
2017-12-19T11:30:36.610Z,5.70
2017-12-19T11:33:04.962Z,5.73
2017-12-19T11:35:33.303Z,5.67
2017-12-19T11:38:01.658Z,5.78
2017-12-19T11:40:29.986Z,5.78
2017-12-19T11:42:58.358Z,5.85
2017-12-19T11:45:26.673Z,5.68
2017-12-19T11:47:55.019Z,5.65
2017-12-19T11:50:23.346Z,5.76
2017-12-19T11:52:51.706Z,5.76
2017-12-19T11:55:20.035Z,5.72
2017-12-19T11:57:48.422Z,5.74
2017-12-19T12:00:16.779Z,5.70
2017-12-19T12:02:45.101Z,5.56
2017-12-19T12:05:13.454Z,5.56
2017-12-19T12:07:41.782Z,5.66
2017-12-19T12:10:10.126Z,5.62
2017-12-19T12:12:38.458Z,5.69
2017-12-19T12:15:06.812Z,5.53
2017-12-19T12:17:35.145Z,5.76
2017-12-19T12:20:03.499Z,5.69
2017-12-19T12:22:31.836Z,5.75
2017-12-19T12:25:00.195Z,5.83
2017-12-19T12:27:28.527Z,5.76
2017-12-19T12:29:56.879Z,5.83
2017-12-19T12:32:25.215Z,5.76
2017-12-19T12:34:53.606Z,5.87
2017-12-19T12:37:21.944Z,6.05
2017-12-19T12:39:50.295Z,6.10
2017-12-19T12:42:18.636Z,6.06
2017-12-19T12:44:46.999Z,5.95
2017-12-19T12:47:15.331Z,6.01
2017-12-19T12:49:43.677Z,5.98
2017-12-19T12:52:12.013Z,5.88
2017-12-19T12:54:40.368Z,5.88
2017-12-19T12:57:08.693Z,5.85
2017-12-19T12:59:37.055Z,6.04
2017-12-19T13:02:05.383Z,5.96
2017-12-19T13:04:33.735Z,5.97
2017-12-19T13:07:02.068Z,5.93
2017-12-19T13:09:30.418Z,5.85
2017-12-19T13:11:58.750Z,5.92
2017-12-19T13:14:27.102Z,5.85
2017-12-19T13:16:55.478Z,6.06
2017-12-19T13:19:23.835Z,5.94
2017-12-19T13:21:52.159Z,6.02
2017-12-19T13:24:20.528Z,6.02
2017-12-19T13:26:48.862Z,5.90
2017-12-19T13:29:17.291Z,5.90
2017-12-19T13:31:45.647Z,6.01
2017-12-19T13:34:13.979Z,6.00
2017-12-19T13:36:42.334Z,6.02
2017-12-19T13:39:10.668Z,5.94
2017-12-19T13:41:39.020Z,6.13
2017-12-19T13:44:07.341Z,6.14
2017-12-19T13:46:35.718Z,5.98
2017-12-19T13:49:04.027Z,6.09
2017-12-19T13:51:32.373Z,5.95
2017-12-19T13:54:00.711Z,5.96
2017-12-19T13:56:29.063Z,5.92
2017-12-19T13:58:57.391Z,5.82
2017-12-19T14:01:25.743Z,5.83
2017-12-19T14:03:54.066Z,5.94
2017-12-19T14:06:22.418Z,5.96
2017-12-19T14:08:50.746Z,6.00
2017-12-19T14:11:19.098Z,5.99
2017-12-19T14:13:48.044Z,5.97
2017-12-19T14:16:16.379Z,5.96
2017-12-19T14:18:44.714Z,6.07
2017-12-19T14:21:13.062Z,6.00
2017-12-19T14:23:41.391Z,6.01
2017-12-19T14:26:09.747Z,5.98
2017-12-19T14:28:38.078Z,6.00
2017-12-19T14:31:06.929Z,5.92
2017-12-19T14:33:35.259Z,6.68
2017-12-19T14:36:03.606Z,6.95
2017-12-19T14:38:31.934Z,6.66
2017-12-19T14:41:00.291Z,6.63
2017-12-19T14:43:28.623Z,6.52
2017-12-19T14:45:56.975Z,6.45
2017-12-19T14:48:25.495Z,6.18
2017-12-19T14:50:53.845Z,6.26
2017-12-19T14:53:22.346Z,6.25
2017-12-19T14:55:50.993Z,6.28
2017-12-19T14:58:19.530Z,6.29
2017-12-19T15:00:47.959Z,6.21
2017-12-19T15:03:16.303Z,6.31
2017-12-19T15:05:44.651Z,6.19
2017-12-19T15:08:12.983Z,6.12
2017-12-19T15:10:41.335Z,6.08
2017-12-19T15:13:09.662Z,6.20
2017-12-19T15:15:38.010Z,6.19
2017-12-19T15:18:06.343Z,6.05
2017-12-19T15:20:34.694Z,6.06
2017-12-19T15:23:03.022Z,6.07
2017-12-19T15:25:32.313Z,6.09
2017-12-19T15:28:00.638Z,6.18
2017-12-19T15:30:29.027Z,6.18
2017-12-19T15:32:57.322Z,6.10
2017-12-19T15:35:25.646Z,6.22
2017-12-19T15:37:54.002Z,6.05
2017-12-19T15:40:22.330Z,6.09
2017-12-19T15:42:50.678Z,6.03
2017-12-19T15:45:19.019Z,6.02
2017-12-19T15:47:47.370Z,6.12
2017-12-19T15:50:15.707Z,5.95
2017-12-19T15:52:44.053Z,6.05
2017-12-19T15:55:12.386Z,6.10
2017-12-19T15:57:40.738Z,6.10
2017-12-19T16:00:09.064Z,6.06
2017-12-19T16:02:37.685Z,6.00
2017-12-19T16:05:06.047Z,5.86
2017-12-19T16:07:34.430Z,5.85
2017-12-19T16:10:02.759Z,5.90
2017-12-19T16:12:32.236Z,5.97
2017-12-19T16:15:00.550Z,5.98
2017-12-19T16:17:28.903Z,6.09
2017-12-19T16:19:57.230Z,5.94
2017-12-19T16:22:25.598Z,5.84
2017-12-19T16:24:56.822Z,5.77
2017-12-19T16:27:25.179Z,5.73
2017-12-19T16:29:53.510Z,5.80
2017-12-19T16:32:22.508Z,5.84
2017-12-19T16:34:50.841Z,6.00
2017-12-19T16:37:19.199Z,6.07
2017-12-19T16:39:47.662Z,6.06
2017-12-19T16:42:16.040Z,6.07
2017-12-19T16:44:44.510Z,6.02
2017-12-19T16:47:13.154Z,7.16
2017-12-19T16:49:41.511Z,7.47
2017-12-19T16:52:09.854Z,7.36
2017-12-19T16:54:38.183Z,7.20
2017-12-19T16:57:06.540Z,7.06
2017-12-19T16:59:34.876Z,7.09
2017-12-19T17:02:03.222Z,7.26
2017-12-19T17:04:31.550Z,7.48
2017-12-19T17:06:59.908Z,7.47
2017-12-19T17:09:28.240Z,7.59
2017-12-19T17:11:56.587Z,7.48
2017-12-19T17:14:24.915Z,7.36
2017-12-19T17:16:53.267Z,7.29
2017-12-19T17:19:21.595Z,6.96
2017-12-19T17:21:49.946Z,6.97
2017-12-19T17:24:18.271Z,6.72
2017-12-19T17:26:46.619Z,6.81
2017-12-19T17:29:14.953Z,6.82
2017-12-19T17:31:43.699Z,6.84
2017-12-19T17:34:12.018Z,6.90
2017-12-19T17:36:40.346Z,6.74
2017-12-19T17:39:08.699Z,6.88
2017-12-19T17:41:37.019Z,6.84
2017-12-19T17:44:05.370Z,6.86
2017-12-19T17:46:33.694Z,6.93
2017-12-19T17:49:02.047Z,6.94
2017-12-19T17:51:30.374Z,6.93
2017-12-19T17:53:58.722Z,6.77
2017-12-19T17:56:27.054Z,6.78
2017-12-19T17:58:55.403Z,6.85
2017-12-19T18:01:23.735Z,6.85
2017-12-19T18:03:52.081Z,6.76
2017-12-19T18:06:20.411Z,6.67
2017-12-19T18:08:48.762Z,6.49
2017-12-19T18:11:18.015Z,6.65
2017-12-19T18:13:46.363Z,6.69
2017-12-19T18:16:14.693Z,6.59
2017-12-19T18:18:43.043Z,6.72
2017-12-19T18:21:11.366Z,6.67
2017-12-19T18:23:39.718Z,6.75
2017-12-19T18:26:08.045Z,6.72
2017-12-19T18:28:36.390Z,6.71
2017-12-19T18:31:04.927Z,6.67
2017-12-19T18:33:33.413Z,6.58
2017-12-19T18:36:01.743Z,6.45
2017-12-19T18:38:30.099Z,6.48
2017-12-19T18:40:58.431Z,6.34
2017-12-19T18:43:26.778Z,6.36
2017-12-19T18:45:55.114Z,6.38
2017-12-19T18:48:24.302Z,6.35
2017-12-19T18:50:52.637Z,6.45
2017-12-19T18:53:20.989Z,6.47
2017-12-19T18:55:49.317Z,6.52
2017-12-19T18:58:17.669Z,6.54
2017-12-19T19:00:45.999Z,6.67
2017-12-19T19:03:14.351Z,6.69
2017-12-19T19:05:42.990Z,6.45
2017-12-19T19:08:11.346Z,6.47
2017-12-19T19:10:39.671Z,6.37
2017-12-19T19:13:08.064Z,6.30
2017-12-19T19:15:36.347Z,6.23
2017-12-19T19:18:04.695Z,6.37
2017-12-19T19:20:33.018Z,6.44
2017-12-19T19:23:01.375Z,6.27
2017-12-19T19:25:30.536Z,6.31
2017-12-19T19:27:58.886Z,6.49
2017-12-19T19:30:27.219Z,6.51
2017-12-19T19:32:55.579Z,6.42
2017-12-19T19:35:23.963Z,6.43
2017-12-19T19:37:52.338Z,6.50
2017-12-19T19:40:20.668Z,6.49
2017-12-19T19:42:48.999Z,6.47
2017-12-19T19:45:18.251Z,6.46
2017-12-19T19:47:46.580Z,6.49
2017-12-19T19:50:15.855Z,6.44
2017-12-19T19:52:44.336Z,6.42
2017-12-19T19:55:14.126Z,6.36
2017-12-19T19:57:43.351Z,6.32
2017-12-19T20:00:11.703Z,6.21
2017-12-19T20:02:40.033Z,6.33
2017-12-19T20:05:08.396Z,6.17
2017-12-19T20:07:36.731Z,6.20
2017-12-19T20:10:05.086Z,6.45
2017-12-19T20:12:33.422Z,6.61
2017-12-19T20:15:01.767Z,6.71
2017-12-19T20:17:31.042Z,6.91
2017-12-19T20:19:59.397Z,6.98
2017-12-19T20:22:27.726Z,7.09
2017-12-19T20:24:56.082Z,7.11
2017-12-19T20:27:24.454Z,7.19
2017-12-19T20:29:52.815Z,7.20
2017-12-19T20:32:21.160Z,7.17
2017-12-19T20:34:49.737Z,7.12
2017-12-19T20:37:18.830Z,7.03
2017-12-19T20:39:47.619Z,6.83
2017-12-19T20:42:16.260Z,6.79
2017-12-19T20:44:45.192Z,6.93
2017-12-19T20:47:13.876Z,6.72
2017-12-19T20:49:42.315Z,6.83
2017-12-19T20:52:10.663Z,6.76
2017-12-19T20:54:39.063Z,6.79
2017-12-19T20:57:07.408Z,6.81
2017-12-19T20:59:35.863Z,6.88
2017-12-19T21:02:04.213Z,6.95
2017-12-19T21:04:32.665Z,7.08
2017-12-19T21:07:01.302Z,6.89
2017-12-19T21:09:30.397Z,6.83
2017-12-19T21:11:58.824Z,6.97
2017-12-19T21:14:27.249Z,6.94
2017-12-19T21:16:55.558Z,6.95
2017-12-19T21:19:23.966Z,7.00
2017-12-19T21:21:52.336Z,7.00
2017-12-19T21:24:20.687Z,6.89
2017-12-19T21:26:49.013Z,6.85
2017-12-19T21:29:17.451Z,6.91
2017-12-19T21:31:45.767Z,6.88
2017-12-19T21:34:14.134Z,6.91
2017-12-19T21:36:42.465Z,6.75
2017-12-19T21:39:10.910Z,6.76
2017-12-19T21:41:40.177Z,6.73
2017-12-19T21:44:08.808Z,6.67
2017-12-19T21:46:37.236Z,6.72
2017-12-19T21:49:05.641Z,6.81
2017-12-19T21:51:34.003Z,6.88
2017-12-19T21:54:02.458Z,6.82
2017-12-19T21:56:31.099Z,7.00
2017-12-19T21:58:59.526Z,7.01
2017-12-19T22:01:28.309Z,6.96
2017-12-19T22:03:56.706Z,6.99
2017-12-19T22:06:25.186Z,6.95
2017-12-19T22:08:53.514Z,7.01
2017-12-19T22:11:22.014Z,6.99
2017-12-19T22:13:50.342Z,6.99
2017-12-19T22:16:18.790Z,7.02
2017-12-19T22:18:47.118Z,6.87
2017-12-19T22:21:15.540Z,6.80
2017-12-19T22:23:43.910Z,6.81
2017-12-19T22:26:12.266Z,7.00
2017-12-19T22:28:40.589Z,7.06
2017-12-19T22:31:09.928Z,6.87
2017-12-19T22:33:38.602Z,6.86
2017-12-19T22:36:07.387Z,6.89
2017-12-19T22:38:35.806Z,6.75
2017-12-19T22:41:04.156Z,6.85
2017-12-19T22:43:32.500Z,6.84
2017-12-19T22:46:00.859Z,6.79
2017-12-19T22:48:29.182Z,6.76
2017-12-19T22:50:57.606Z,6.86
2017-12-19T22:53:25.930Z,6.88
2017-12-19T22:55:54.258Z,6.92
2017-12-19T22:58:22.610Z,7.02
2017-12-19T23:00:51.421Z,6.95
2017-12-19T23:03:19.775Z,6.84
2017-12-19T23:05:48.171Z,6.90
2017-12-19T23:08:16.905Z,7.00
2017-12-19T23:10:45.252Z,6.97
2017-12-19T23:13:13.706Z,7.03
2017-12-19T23:15:42.843Z,6.88
2017-12-19T23:18:11.190Z,6.85
2017-12-19T23:20:39.559Z,6.89
2017-12-19T23:23:07.911Z,6.92
2017-12-19T23:25:36.238Z,6.96
2017-12-19T23:28:04.688Z,6.83
2017-12-19T23:30:33.014Z,6.91
2017-12-19T23:33:01.450Z,6.94
2017-12-19T23:35:29.805Z,6.91
2017-12-19T23:37:58.146Z,6.92
2017-12-19T23:40:26.469Z,6.85
2017-12-19T23:42:54.819Z,6.75
2017-12-19T23:45:23.150Z,6.70
2017-12-19T23:47:51.614Z,6.52
2017-12-19T23:50:19.934Z,6.49
2017-12-19T23:52:48.458Z,6.57
2017-12-19T23:55:16.786Z,6.70
2017-12-19T23:57:45.127Z,6.75
